Time;durP1;ratioP1;P1;durP2;ratioP2;P2;SDS_P1;SDS_P2;PMS_P1;PMS_P2;Temp;Humidity;BMP_temperature;BMP_pressure;BME280_temperature;BME280_humidity;BME280_pressure;Samples;Min_cycle;Max_cycle;Signal;HPM_P1;HPM_P2
2021/03/04 00:00:38;;;;;;;;;;;;;;;-2.34;100.00;101756.80;1722147;82;21174;-85
2021/03/04 00:03:08;;;;;;;42.75;22.77;;;;;;;-2.34;100.00;101756.36;1719559;82;21384;-85
2021/03/04 00:05:37;;;;;;;41.05;22.00;;;;;;;-2.33;100.00;101755.52;1719442;82;21210;-86
2021/03/04 00:08:06;;;;;;;36.50;20.08;;;;;;;-2.33;100.00;101759.34;1719604;83;21150;-86
2021/03/04 00:10:35;;;;;;;29.60;17.85;;;;;;;-2.33;100.00;101754.23;1719590;82;21155;-85
2021/03/04 00:13:03;;;;;;;33.42;18.23;;;;;;;-2.34;100.00;101746.16;1717469;82;21123;-85
2021/03/04 00:15:33;;;;;;;33.90;18.65;;;;;;;-2.32;100.00;101738.08;1690804;83;21574;-85
2021/03/04 00:18:02;;;;;;;30.25;16.23;;;;;;;-2.29;100.00;101738.08;1690794;83;21210;-85
2021/03/04 00:20:32;;;;;;;27.00;15.63;;;;;;;-2.27;100.00;101738.06;1690714;83;21167;-85
2021/03/04 00:23:01;;;;;;;21.77;13.05;;;;;;;-2.25;100.00;101730.81;1690884;84;21096;-85
2021/03/04 00:25:36;;;;;;;26.37;13.93;;;;;;;-2.23;100.00;101727.84;1697837;83;21190;-85
2021/03/04 00:28:06;;;;;;;24.82;13.80;;;;;;;-2.22;100.00;101726.13;1719762;82;21495;-85
2021/03/04 00:30:37;;;;;;;23.80;14.38;;;;;;;-2.20;100.00;101726.14;1719742;83;21185;-85
2021/03/04 00:33:05;;;;;;;20.30;12.53;;;;;;;-2.20;100.00;101719.76;1719818;83;21610;-85
2021/03/04 00:35:33;;;;;;;23.15;14.03;;;;;;;-2.20;100.00;101718.48;1719725;83;21136;-85
2021/03/04 00:38:30;;;;;;;21.15;12.55;;;;;;;-2.20;100.00;101710.83;1719799;82;21147;-85
2021/03/04 00:41:00;;;;;;;17.12;11.33;;;;;;;-2.22;100.00;101710.41;1719892;82;21574;-86
2021/03/04 00:43:28;;;;;;;21.20;12.93;;;;;;;-2.22;100.00;101704.02;1719641;82;21237;-85
2021/03/04 00:45:56;;;;;;;21.40;12.93;;;;;;;-2.23;100.00;101697.63;1719852;82;21174;-85
2021/03/04 00:48:25;;;;;;;24.23;13.55;;;;;;;-2.26;100.00;101695.94;1719835;83;21166;-85
2021/03/04 00:50:55;;;;;;;18.30;12.10;;;;;;;-2.28;100.00;101695.09;1719864;82;21599;-86
2021/03/04 00:53:23;;;;;;;15.78;11.28;;;;;;;-2.31;100.00;101696.41;1719864;82;22195;-85
2021/03/04 00:55:51;;;;;;;18.87;11.97;;;;;;;-2.34;100.00;101692.58;1719865;82;21630;-86
2021/03/04 00:58:21;;;;;;;21.17;12.70;;;;;;;-2.36;100.00;101694.28;1719859;83;21150;-86
2021/03/04 01:00:50;;;;;;;17.87;12.25;;;;;;;-2.36;100.00;101685.78;1719874;83;21626;-85
2021/03/04 01:03:19;;;;;;;21.77;12.68;;;;;;;-2.39;100.00;101687.92;1719802;82;21179;-85
2021/03/04 01:05:47;;;;;;;18.17;11.53;;;;;;;-2.45;100.00;101681.58;1719887;82;21457;-86
2021/03/04 01:08:16;;;;;;;17.82;11.33;;;;;;;-2.50;100.00;101680.73;1719742;82;21586;-85
2021/03/04 01:10:44;;;;;;;15.85;9.70;;;;;;;-2.59;100.00;101681.19;1719862;82;21179;-86
2021/03/04 01:13:13;;;;;;;19.05;11.57;;;;;;;-2.61;100.00;101678.22;1700809;83;21111;-85
2021/03/04 01:15:43;;;;;;;18.48;10.72;;;;;;;-2.61;100.00;101681.64;1700799;84;21119;-86
2021/03/04 01:18:21;;;;;;;17.90;10.68;;;;;;;-2.64;100.00;101679.09;1722003;82;21386;-86
2021/03/04 01:20:49;;;;;;;15.03;10.45;;;;;;;-2.61;100.00;101680.36;1724623;81;21574;-86
2021/03/04 01:23:18;;;;;;;17.95;10.43;;;;;;;-2.58;100.00;101681.61;1724726;83;21139;-86
2021/03/04 01:25:47;;;;;;;14.78;10.60;;;;;;;-2.53;100.00;101681.59;1724757;81;21621;-86
2021/03/04 01:28:15;;;;;;;18.12;10.32;;;;;;;-2.51;100.00;101686.27;1724713;83;21179;-86
2021/03/04 01:30:43;;;;;;;15.80;9.55;;;;;;;-2.49;100.00;101685.84;1724749;83;21202;-86
2021/03/04 01:33:15;;;;;;;16.10;9.68;;;;;;;-2.45;100.00;101685.41;1723793;83;21174;-86
2021/03/04 01:35:48;;;;;;;18.35;10.55;;;;;;;-2.44;100.00;101681.98;1724840;83;21175;-86
2021/03/04 01:38:19;;;;;;;17.48;9.80;;;;;;;-2.41;100.00;101683.25;1724752;81;21162;-86
2021/03/04 01:40:54;;;;;;;17.48;10.45;;;;;;;-2.39;100.00;101685.38;1724645;81;21621;-86
2021/03/04 01:43:25;;;;;;;14.10;10.00;;;;;;;-2.37;100.00;101683.67;1724844;82;22199;-85
2021/03/04 01:45:54;;;;;;;16.95;9.70;;;;;;;-2.36;100.00;101673.03;1724936;81;21190;-86
2021/03/04 01:48:24;;;;;;;15.53;9.85;;;;;;;-2.36;100.00;101671.31;1724708;83;21202;-86
2021/03/04 01:50:55;;;;;;;14.47;9.53;;;;;;;-2.35;100.00;101684.50;1724841;81;21135;-86
2021/03/04 01:53:24;;;;;;;17.80;10.45;;;;;;;-2.35;100.00;101677.28;1724837;83;21083;-86
2021/03/04 01:55:52;;;;;;;17.27;10.82;;;;;;;-2.36;100.00;101672.59;1724883;83;21339;-86
2021/03/04 01:58:20;;;;;;;16.17;9.88;;;;;;;-2.35;100.00;101674.29;1724604;83;21151;-86
2021/03/04 02:00:48;;;;;;;15.55;10.10;;;;;;;-2.32;100.00;101674.73;1724815;81;21147;-86
2021/03/04 02:03:26;;;;;;;16.57;11.08;;;;;;;-2.32;100.00;101669.19;1724791;81;21225;-86
2021/03/04 02:05:55;;;;;;;18.00;11.45;;;;;;;-2.31;100.00;101664.91;1724834;83;21146;-86
2021/03/04 02:08:40;;;;;;;16.57;11.55;;;;;;;-2.31;100.00;101676.39;1724848;82;22286;-86
2021/03/04 02:11:19;;;;;;;25.57;15.58;;;;;;;-2.34;100.00;101675.98;1721845;82;21574;-86
2021/03/04 02:14:10;;;;;;;28.38;17.62;;;;;;;-2.32;100.00;101670.91;1720159;83;21167;-86
2021/03/04 02:16:50;;;;;;;30.23;19.55;;;;;;;-2.32;100.00;101674.29;1723835;81;21477;-86
2021/03/04 02:19:50;;;;;;;28.52;21.55;;;;;;;-2.32;100.00;101671.73;1721348;82;21104;-86
2021/03/04 02:22:48;;;;;;;39.58;32.25;;;;;;;-2.31;100.00;101664.51;1724793;82;22259;-86
2021/03/04 02:25:56;;;;;;;44.05;37.38;;;;;;;-2.31;100.00;101663.64;1724742;81;21111;-86
2021/03/04 02:28:26;;;;;;;32.50;27.95;;;;;;;-2.32;100.00;101655.59;1724752;83;21127;-86
2021/03/04 02:30:59;;;;;;;40.78;31.42;;;;;;;-2.33;100.00;101660.27;1724766;81;21091;-86
2021/03/04 02:33:32;;;;;;;28.83;20.55;;;;;;;-2.31;100.00;101647.92;1721582;83;21198;-86
2021/03/04 02:36:05;;;;;;;24.43;16.20;;;;;;;-2.31;100.00;101653.03;1724669;83;21594;-86
2021/03/04 02:38:34;;;;;;;21.07;13.28;;;;;;;-2.31;100.00;101655.58;1724810;83;21103;-86
2021/03/04 02:41:03;;;;;;;19.92;13.22;;;;;;;-2.30;100.00;101654.72;1724691;82;21507;-86
2021/03/04 02:43:31;;;;;;;19.55;13.05;;;;;;;-2.32;100.00;101653.87;1724673;83;21129;-86
2021/03/04 02:46:00;;;;;;;20.30;13.30;;;;;;;-2.32;100.00;101650.05;1724755;83;21177;-86
2021/03/04 02:48:31;;;;;;;25.30;15.63;;;;;;;-2.32;100.00;101644.11;1724690;83;22296;-86
2021/03/04 02:51:01;;;;;;;18.07;12.93;;;;;;;-2.33;100.00;101641.14;1724776;83;21161;-86
2021/03/04 02:53:29;;;;;;;19.82;13.58;;;;;;;-2.33;100.00;101644.52;1724709;82;21571;-86
2021/03/04 02:55:59;;;;;;;21.85;14.55;;;;;;;-2.34;100.00;101640.27;1724627;82;21170;-86
2021/03/04 02:58:27;;;;;;;19.42;14.00;;;;;;;-2.34;100.00;101632.61;1724712;83;21178;-86
2021/03/04 03:00:57;;;;;;;19.70;13.25;;;;;;;-2.34;100.00;101628.79;1724585;82;21538;-86
2021/03/04 03:03:27;;;;;;;25.90;14.07;;;;;;;-2.35;100.00;101623.70;1724666;83;21146;-86
2021/03/04 03:05:58;;;;;;;21.27;14.75;;;;;;;-2.35;100.00;101618.16;1724907;83;21087;-86
2021/03/04 03:08:26;;;;;;;24.67;14.25;;;;;;;-2.38;100.00;101619.47;1698253;83;21235;-86
2021/03/04 03:10:55;;;;;;;20.30;12.98;;;;;;;-2.39;100.00;101620.32;1724852;82;21601;-86
2021/03/04 03:13:28;;;;;;;19.45;12.88;;;;;;;-2.43;100.00;101614.80;1724781;83;22135;-86
2021/03/04 03:15:57;;;;;;;21.20;13.13;;;;;;;-2.46;100.00;101605.91;1724702;82;21079;-86
2021/03/04 03:18:26;;;;;;;19.25;12.73;;;;;;;-2.48;100.00;101610.16;1724695;83;21099;-86
2021/03/04 03:20:54;;;;;;;25.27;14.80;;;;;;;-2.52;100.00;101603.39;1724755;83;21198;-86
2021/03/04 03:23:29;;;;;;;24.57;14.05;;;;;;;-2.58;100.00;101596.61;1724755;83;21538;-86
2021/03/04 03:25:57;;;;;;;23.45;15.18;;;;;;;-2.59;100.00;101595.74;1724875;83;21373;-86
2021/03/04 03:28:26;;;;;;;25.97;16.97;;;;;;;-2.59;100.00;101589.81;1724653;82;21186;-86
2021/03/04 03:30:56;;;;;;;29.27;17.73;;;;;;;-2.58;100.00;101589.80;1724791;82;21158;-86
2021/03/04 03:33:26;;;;;;;25.25;17.55;;;;;;;-2.55;100.00;101591.06;1724908;82;21608;-86
2021/03/04 03:35:55;;;;;;;32.67;21.03;;;;;;;-2.57;100.00;101577.47;1724997;81;21113;-87
2021/03/04 03:38:27;;;;;;;33.70;20.72;;;;;;;-2.55;100.00;101574.48;1724655;82;21539;-86
2021/03/04 03:40:56;;;;;;;33.30;21.60;;;;;;;-2.56;100.00;101566.82;1724723;81;21555;-86
2021/03/04 03:43:25;;;;;;;42.00;25.48;;;;;;;-2.60;100.00;101560.89;1713906;83;21103;-87
2021/03/04 03:45:54;;;;;;;35.00;23.50;;;;;;;-2.70;100.00;101560.54;1713336;83;21854;-86
2021/03/04 03:48:29;;;;;;;34.20;23.80;;;;;;;-2.77;100.00;101560.15;1713631;81;21657;-86
2021/03/04 03:51:00;;;;;;;34.30;24.32;;;;;;;-2.82;100.00;101551.24;1695870;83;22305;-86
2021/03/04 03:53:35;;;;;;;40.52;23.70;;;;;;;-2.82;100.00;101549.97;1707035;83;21142;-86
2021/03/04 03:56:04;;;;;;;36.08;23.62;;;;;;;-2.81;100.00;101545.30;1724863;82;21189;-86
2021/03/04 03:58:40;;;;;;;37.30;25.20;;;;;;;-2.79;100.00;101544.00;1724716;83;21165;-86
2021/03/04 04:01:08;;;;;;;33.35;21.95;;;;;;;-2.79;100.00;101541.45;1709811;83;21174;-86
2021/03/04 04:03:36;;;;;;;36.38;21.90;;;;;;;-2.77;100.00;101541.86;1716144;82;22134;-86
2021/03/04 04:06:07;;;;;;;33.20;20.70;;;;;;;-2.77;100.00;101534.66;1724619;83;21086;-86
2021/03/04 04:08:37;;;;;;;29.42;19.90;;;;;;;-2.77;100.00;101532.94;1724890;82;21092;-86
2021/03/04 04:11:05;;;;;;;30.02;20.32;;;;;;;-2.77;100.00;101532.10;1724776;83;21549;-86
2021/03/04 04:13:33;;;;;;;29.52;19.37;;;;;;;-2.77;100.00;101528.28;1724774;83;21241;-87
2021/03/04 04:16:30;;;;;;;34.98;22.15;;;;;;;-2.74;100.00;101519.32;1720271;83;21273;-86
2021/03/04 04:18:59;;;;;;;36.55;21.25;;;;;;;-2.73;100.00;101510.41;1695672;83;21094;-86
2021/03/04 04:21:28;;;;;;;35.80;20.62;;;;;;;-2.70;100.00;101511.65;1695605;83;21103;-86
2021/03/04 04:23:57;;;;;;;28.57;19.85;;;;;;;-2.68;100.00;101512.91;1695640;83;21669;-87
2021/03/04 04:26:28;;;;;;;34.30;21.42;;;;;;;-2.65;100.00;101508.24;1695487;83;21133;-86
2021/03/04 04:29:00;;;;;;;;;;;;;;;-2.62;100.00;101508.20;1698299;84;21206;-86
2021/03/04 04:31:28;;;;;;;39.95;20.30;;;;;;;-2.60;100.00;101503.95;1695741;84;20273;-86
2021/03/04 04:33:57;;;;;;;43.92;21.85;;;;;;;-2.59;100.00;101496.28;1695581;83;21134;-86
2021/03/04 04:36:33;;;;;;;41.15;22.22;;;;;;;-2.55;100.00;101497.11;1695710;84;21493;-86
2021/03/04 04:39:01;;;;;;;68.70;28.80;;;;;;;-2.51;100.00;101492.83;1695625;84;21134;-86
2021/03/04 04:41:29;;;;;;;53.30;24.70;;;;;;;-2.48;100.00;101489.83;1695684;83;21385;-86
2021/03/04 04:43:58;;;;;;;48.63;25.43;;;;;;;-2.45;100.00;101483.88;1695551;83;21586;-86
2021/03/04 04:46:26;;;;;;;47.20;24.27;;;;;;;-2.41;100.00;101480.03;1695689;84;21131;-86
2021/03/04 04:49:03;;;;;;;35.78;21.50;;;;;;;-2.38;100.00;101471.50;1695481;83;21194;-85
2021/03/04 04:51:34;;;;;;;37.40;21.87;;;;;;;-2.35;100.00;101468.91;1695659;83;21099;-86
2021/03/04 04:54:02;;;;;;;36.63;22.07;;;;;;;-2.31;100.00;101472.28;1710128;82;21174;-85
2021/03/04 04:56:34;;;;;;;36.10;24.20;;;;;;;-2.30;100.00;101469.73;1701147;82;21573;-85
2021/03/04 04:59:37;;;;;;;36.38;23.20;;;;;;;-2.26;100.00;101465.02;1695577;84;21242;-85
2021/03/04 05:02:06;;;;;;;44.35;26.80;;;;;;;-2.24;100.00;101467.13;1695482;83;21185;-85
2021/03/04 05:04:35;;;;;;;44.15;26.37;;;;;;;-2.16;100.00;101462.39;1694091;83;21721;-85
2021/03/04 05:07:03;;;;;;;43.23;26.17;;;;;;;-2.10;100.00;101460.64;1695511;83;21204;-86
2021/03/04 05:09:40;;;;;;;52.58;30.85;;;;;;;-2.03;100.00;101455.03;1699561;83;21187;-86
2021/03/04 05:12:10;;;;;;;52.25;31.97;;;;;;;-1.97;100.00;101446.06;1697201;83;21589;-86
2021/03/04 05:14:39;;;;;;;71.72;44.20;;;;;;;-1.90;100.00;101441.72;1723228;82;21550;-85
2021/03/04 05:17:07;;;;;;;59.08;35.35;;;;;;;-1.82;100.00;101442.48;1701803;83;21162;-85
2021/03/04 05:19:35;;;;;;;57.10;33.67;;;;;;;-1.75;100.00;101449.67;1724527;82;21361;-86
2021/03/04 05:22:03;;;;;;;65.28;34.15;;;;;;;-1.67;100.00;101445.33;1706654;83;21124;-87
2021/03/04 05:24:31;;;;;;;61.65;33.42;;;;;;;-1.57;100.00;101441.39;1697733;83;21095;-87
2021/03/04 05:27:01;;;;;;;46.68;31.97;;;;;;;-1.33;100.00;101445.36;1695822;83;21577;-87
2021/03/04 05:29:30;;;;;;;67.45;37.83;;;;;;;-1.04;100.00;101443.71;1695593;83;21790;-88
2021/03/04 05:31:58;;;;;;;65.85;39.83;;;;;;;-0.79;100.00;101439.54;1695665;84;21176;-88
2021/03/04 05:34:27;;;;;;;58.00;35.10;;;;;;;-0.65;100.00;101431.22;1699787;83;21217;-89
2021/03/04 05:36:55;;;;;;;59.30;38.25;;;;;;;-0.50;100.00;101425.03;1709899;81;21229;-88
2021/03/04 05:39:23;;;;;;;58.55;38.28;;;;;;;-0.37;100.00;101425.67;1715553;82;21201;-89
2021/03/04 05:42:46;;;;;;;53.87;37.28;;;;;;;-0.19;100.00;101421.09;1710482;83;21178;-91
2021/03/04 05:49:58;;;;;;;43.25;30.80;;;;;;;0.13;100.00;101419.25;1717630;83;21154;-89
2021/03/04 06:08:28;;;;;;;60.63;39.03;;;;;;;0.47;100.00;101386.99;1685544;84;21641;-88
2021/03/04 06:10:56;;;;;;;34.00;25.02;;;;;;;0.49;100.00;101387.81;1689713;84;21583;-88
2021/03/04 06:13:26;;;;;;;47.93;28.90;;;;;;;0.50;100.00;101384.38;1690065;84;21163;-89
2021/03/04 06:15:54;;;;;;;41.98;26.68;;;;;;;0.50;100.00;101384.38;1712289;83;21567;-88
2021/03/04 06:18:22;;;;;;;41.92;22.70;;;;;;;0.51;100.00;101383.92;1675234;85;21562;-88
2021/03/04 06:20:50;;;;;;;33.00;23.25;;;;;;;0.52;100.00;101378.76;1678432;82;21387;-88
2021/03/04 06:23:24;;;;;;;33.05;25.52;;;;;;;0.51;100.00;101375.81;1676884;84;21216;-88
2021/03/04 06:25:52;;;;;;;31.23;23.10;;;;;;;0.51;100.00;101375.81;1679997;84;21722;-89
2021/03/04 06:28:25;;;;;;;36.13;24.60;;;;;;;0.53;100.00;101368.91;1725354;82;21168;-88
2021/03/04 06:30:53;;;;;;;31.35;22.85;;;;;;;0.59;100.00;101361.12;1713784;82;21136;-89
2021/03/04 06:33:21;;;;;;;32.53;21.57;;;;;;;0.63;100.00;101361.44;1719147;82;21641;-89
2021/03/04 06:35:50;;;;;;;32.28;20.27;;;;;;;0.67;100.00;101358.38;1712153;82;21206;-89
2021/03/04 06:38:25;;;;;;;31.12;20.85;;;;;;;0.71;100.00;101348.47;1714285;82;21132;-89
2021/03/04 06:40:52;;;;;;;29.05;20.55;;;;;;;0.71;100.00;101352.32;1712807;82;21167;-89
2021/03/04 06:43:30;;;;;;;27.25;19.62;;;;;;;0.71;100.00;101348.89;1706436;83;21591;-90
2021/03/04 06:46:06;;;;;;;30.65;21.48;;;;;;;0.72;100.00;101343.72;1706753;82;21718;-89
2021/03/04 06:48:35;;;;;;;43.80;23.02;;;;;;;0.72;100.00;101334.75;1705666;83;21108;-90
2021/03/04 06:51:06;;;;;;;40.03;25.62;;;;;;;0.76;100.00;101337.66;1706383;84;21292;-89
2021/03/04 06:53:34;;;;;;;34.25;24.82;;;;;;;0.80;100.00;101333.31;1713567;82;21908;-89
2021/03/04 06:56:06;;;;;;;28.73;22.35;;;;;;;0.82;100.00;101336.69;1731171;82;21192;-86
2021/03/04 06:58:41;;;;;;;53.55;28.05;;;;;;;0.83;100.00;101333.67;1729421;82;21266;-86
2021/03/04 07:01:12;;;;;;;43.10;23.27;;;;;;;0.86;100.00;101319.05;1731706;82;21603;-86
2021/03/04 07:03:49;;;;;;;41.58;25.45;;;;;;;0.93;100.00;101312.08;1728781;82;21690;-86
2021/03/04 07:06:25;;;;;;;25.62;19.48;;;;;;;0.97;100.00;101311.56;1724124;81;21064;-86
2021/03/04 07:08:54;;;;;;;24.05;17.80;;;;;;;1.00;100.00;101299.95;1720857;81;21179;-86
2021/03/04 07:11:25;;;;;;;45.40;24.00;;;;;;;1.04;100.00;101293.86;1728493;81;21352;-86
2021/03/04 07:13:53;;;;;;;63.30;30.27;;;;;;;1.08;100.00;101295.48;1727491;82;25514;-86
2021/03/04 07:16:35;;;;;;;40.85;25.17;;;;;;;1.15;100.00;101293.59;1725576;81;21675;-86
2021/03/04 07:19:10;;;;;;;27.48;20.62;;;;;;;1.19;100.00;101280.65;1727975;82;21235;-90
2021/03/04 07:21:43;;;;;;;48.75;26.15;;;;;;;1.28;100.00;101278.73;1727634;82;21134;-90
2021/03/04 07:24:12;;;;;;;39.23;22.87;;;;;;;1.33;100.00;101278.16;1729653;82;21427;-90
2021/03/04 07:26:41;;;;;;;27.55;20.40;;;;;;;1.39;100.00;101264.73;1720112;82;22285;-90
2021/03/04 07:29:11;;;;;;;22.10;16.87;;;;;;;1.47;100.00;101254.28;1697092;82;21493;-90
2021/03/04 07:31:43;;;;;;;22.42;16.55;;;;;;;1.56;100.00;101256.58;1684187;84;21965;-89
2021/03/04 07:34:16;;;;;;;21.70;15.45;;;;;;;1.65;100.00;101252.93;1680490;84;21095;-89
2021/03/04 07:36:51;;;;;;;21.23;16.32;;;;;;;1.73;100.00;101242.43;1683328;84;21373;-90
2021/03/04 07:39:40;;;;;;;23.18;17.98;;;;;;;1.84;100.00;101236.56;1676378;83;21132;-89
2021/03/04 07:42:20;;;;;;;23.73;16.60;;;;;;;1.94;100.00;101226.85;1693342;83;21128;-89
2021/03/04 07:44:52;;;;;;;19.65;14.50;;;;;;;2.05;100.00;101219.69;1685243;84;21170;-90
2021/03/04 07:47:28;;;;;;;17.55;14.05;;;;;;;2.18;100.00;101219.30;1690666;83;21108;-89
2021/03/04 07:49:56;;;;;;;17.82;14.00;;;;;;;2.27;100.00;101208.75;1693024;83;21594;-90
2021/03/04 07:52:26;;;;;;;20.52;14.45;;;;;;;2.34;100.00;101201.70;1682558;84;21194;-89
2021/03/04 07:54:56;;;;;;;19.15;13.68;;;;;;;2.40;100.00;101197.64;1683047;84;21230;-90
2021/03/04 07:57:28;;;;;;;19.00;14.43;;;;;;;2.47;100.00;101201.70;1679824;84;21147;-90
2021/03/04 08:00:05;;;;;;;17.75;13.72;;;;;;;2.53;100.00;101202.78;1691819;83;21314;-90
2021/03/04 08:02:42;;;;;;;18.30;13.85;;;;;;;2.63;100.00;101202.06;1681319;84;22274;-89
2021/03/04 08:05:35;;;;;;;25.17;14.80;;;;;;;2.73;100.00;101194.02;1689035;83;21611;-89
2021/03/04 08:10:58;;;;;;;20.10;14.43;;;;;;;2.96;100.00;101189.40;1872666;75;22210;-90
2021/03/04 08:13:52;;;;;;;17.92;14.18;;;;;;;3.00;100.00;101190.53;1840159;77;21145;-90
2021/03/04 08:16:14;;;;;;;18.12;13.78;;;;;;;3.09;100.00;101193.22;1810606;78;21330;-90
2021/03/04 08:18:58;;;;;;;;;;;;;;;3.18;100.00;101180.93;1842485;78;21204;-90
2021/03/04 08:21:26;;;;;;;;;;;;;;;3.27;100.00;101174.17;1843125;77;20227;-89
2021/03/04 08:23:54;;;;;;;19.77;12.95;;;;;;;3.32;100.00;101162.00;1840508;77;20222;-89
2021/03/04 08:26:29;;;;;;;18.77;13.58;;;;;;;3.37;100.00;101154.94;1811477;76;21119;-88
2021/03/04 08:29:12;;;;;;;15.08;12.35;;;;;;;3.48;100.00;101158.41;1840355;77;20932;-88
2021/03/04 08:31:45;;;;;;;18.92;13.22;;;;;;;3.58;100.00;101143.44;1840380;77;21244;-88
2021/03/04 08:34:13;;;;;;;19.10;14.40;;;;;;;3.67;100.00;101143.56;1842681;76;21886;-88
2021/03/04 08:36:48;;;;;;;46.98;35.80;;;;;;;3.76;100.00;101143.22;1836164;76;21180;-88
2021/03/04 08:39:21;;;;;;;35.73;27.30;;;;;;;3.87;100.00;101138.48;1817004;77;21094;-88
2021/03/04 08:41:55;;;;;;;42.95;34.38;;;;;;;3.99;100.00;101135.05;1827604;77;21358;-88
2021/03/04 08:44:23;;;;;;;25.82;19.32;;;;;;;4.05;100.00;101135.63;1836204;77;21121;-88
2021/03/04 08:46:51;;;;;;;39.65;29.80;;;;;;;4.13;100.00;101117.75;1819428;77;21181;-89
2021/03/04 08:49:20;;;;;;;20.37;15.83;;;;;;;4.20;100.00;101120.01;1810665;79;21152;-89
2021/03/04 08:51:50;;;;;;;19.17;13.45;;;;;;;4.27;100.00;101110.30;1823265;77;21149;-88
2021/03/04 08:54:27;;;;;;;18.73;13.35;;;;;;;4.35;100.00;101103.09;1857309;75;22235;-89
2021/03/04 08:57:03;;;;;;;20.95;13.43;;;;;;;4.45;100.00;101111.27;1840150;77;21066;-89
2021/03/04 08:59:32;;;;;;;19.23;13.08;;;;;;;4.56;100.00;101097.92;1840216;77;21161;-89
2021/03/04 09:02:02;;;;;;;15.95;12.00;;;;;;;4.67;100.00;101105.20;1822090;76;21598;-89
2021/03/04 09:04:31;;;;;;;20.23;12.58;;;;;;;4.86;100.00;101095.78;1807368;78;21612;-88
2021/03/04 09:07:00;;;;;;;17.35;12.90;;;;;;;4.86;100.00;101095.78;1833640;77;21246;-88
2021/03/04 09:09:35;;;;;;;;;;;;;;;4.96;100.00;101087.17;1816188;77;21158;-89
2021/03/04 09:12:04;;;;;;;20.30;13.15;;;;;;;5.13;100.00;101085.13;1753406;81;20256;-89
2021/03/04 09:14:34;;;;;;;18.30;13.00;;;;;;;5.13;100.00;101085.13;1753719;81;21194;-89
2021/03/04 09:17:02;;;;;;;19.32;12.93;;;;;;;5.22;100.00;101081.31;1783883;78;21649;-89
2021/03/04 09:19:35;;;;;;;21.00;13.93;;;;;;;5.42;100.00;101082.13;1729548;83;21378;-88
2021/03/04 09:22:07;;;;;;;20.70;13.70;;;;;;;5.42;100.00;101082.13;1748312;79;21605;-88
2021/03/04 09:24:38;;;;;;;19.62;14.38;;;;;;;5.49;100.00;101075.77;1775140;79;21102;-88
2021/03/04 09:27:09;;;;;;;21.37;14.90;;;;;;;5.56;100.00;101064.70;1792386;78;21129;-88
2021/03/04 09:29:41;;;;;;;19.62;14.23;;;;;;;5.59;100.00;101060.23;1760108;80;21159;-89
2021/03/04 09:32:09;;;;;;;23.00;15.08;;;;;;;5.61;100.00;101051.14;1773383;80;21368;-89
2021/03/04 09:34:45;;;;;;;20.62;14.07;;;;;;;5.63;100.00;101051.88;1790009;80;21585;-89
2021/03/04 09:37:30;;;;;;;22.65;14.65;;;;;;;5.67;100.00;101046.49;1752023;80;21531;-89
2021/03/04 09:39:59;;;;;;;22.40;14.93;;;;;;;5.75;100.00;101042.70;1777401;78;21589;-89
2021/03/04 09:42:37;;;;;;;21.20;14.68;;;;;;;5.86;100.00;101041.74;1775342;80;21063;-89
2021/03/04 09:45:08;;;;;;;24.20;16.17;;;;;;;5.96;100.00;101039.54;1763036;80;21338;-89
2021/03/04 09:47:42;;;;;;;22.85;15.45;;;;;;;6.04;100.00;101030.16;1792354;78;21193;-89
2021/03/04 09:50:24;;;;;;;26.12;16.05;;;;;;;6.10;100.00;101029.84;1790703;80;21564;-89
2021/03/04 09:53:06;;;;;;;25.00;17.20;;;;;;;6.16;100.00;101020.48;1792552;80;21657;-89
2021/03/04 09:55:44;;;;;;;22.82;15.98;;;;;;;6.22;100.00;101022.75;1792096;80;21226;-88
2021/03/04 09:58:15;;;;;;;27.48;18.60;;;;;;;6.25;100.00;101010.98;1803848;79;21585;-88
2021/03/04 10:00:45;;;;;;;23.47;16.25;;;;;;;6.31;100.00;101011.95;1767359;79;21195;-89
2021/03/04 10:03:14;;;;;;;24.60;16.73;;;;;;;6.36;100.00;101015.59;1763235;80;21144;-88
2021/03/04 10:05:48;;;;;;;30.05;17.17;;;;;;;6.43;100.00;101013.55;1754281;79;21070;-88
2021/03/04 10:08:20;;;;;;;31.30;18.95;;;;;;;6.46;100.00;101006.90;1785750;79;21172;-89
2021/03/04 10:10:51;;;;;;;29.35;19.05;;;;;;;6.48;100.00;101001.20;1793948;79;21421;-89
2021/03/04 10:13:30;;;;;;;23.42;16.10;;;;;;;6.50;100.00;100995.94;1798323;78;21075;-90
2021/03/04 10:16:13;;;;;;;28.17;17.50;;;;;;;6.53;100.00;100989.31;1798223;79;21059;-89
2021/03/04 10:18:49;;;;;;;22.77;14.95;;;;;;;6.61;100.00;100987.16;1798087;78;21192;-87
2021/03/04 10:21:18;;;;;;;29.37;16.90;;;;;;;6.72;100.00;100986.59;1798057;78;21599;-87
2021/03/04 10:23:49;;;;;;;28.90;17.25;;;;;;;6.78;100.00;100982.37;1798015;78;21186;-87
2021/03/04 10:26:18;;;;;;;32.63;18.45;;;;;;;6.81;100.00;100973.17;1798010;78;21121;-87
2021/03/04 10:28:46;;;;;;;27.95;17.85;;;;;;;6.83;100.00;100963.58;1798075;78;21156;-87
2021/03/04 10:31:14;;;;;;;28.42;17.30;;;;;;;6.84;100.00;100960.08;1792409;79;21620;-87
2021/03/04 10:33:42;;;;;;;32.05;18.15;;;;;;;6.83;100.00;100966.16;1772972;79;21156;-87
2021/03/04 10:36:13;;;;;;;29.12;18.15;;;;;;;6.81;100.00;100960.23;1759391;79;21244;-87
2021/03/04 10:38:41;;;;;;;27.55;18.52;;;;;;;6.82;100.00;100953.28;1764011;79;21099;-87
2021/03/04 10:41:09;;;;;;;28.05;17.15;;;;;;;6.87;100.00;100953.89;1760625;80;21151;-87
2021/03/04 10:43:38;;;;;;;46.18;30.45;;;;;;;6.92;100.00;100947.55;1749367;80;21257;-87
2021/03/04 10:46:06;;;;;;;30.05;19.37;;;;;;;6.97;100.00;100939.50;1772770;79;21139;-87
2021/03/04 10:48:35;;;;;;;28.85;18.60;;;;;;;7.02;100.00;100930.19;1788810;78;22141;-86
2021/03/04 10:51:03;;;;;;;29.72;19.20;;;;;;;7.11;100.00;100928.39;1771488;79;21173;-87
2021/03/04 10:53:32;;;;;;;38.17;24.72;;;;;;;7.21;100.00;100927.44;1780319;79;21523;-87
2021/03/04 10:56:00;;;;;;;26.87;19.27;;;;;;;7.29;96.61;100925.22;1780110;79;21701;-87
2021/03/04 10:58:32;;;;;;;36.50;22.50;;;;;;;7.32;96.02;100928.95;1783596;79;21178;-87
2021/03/04 11:01:00;;;;;;;34.25;20.55;;;;;;;7.33;96.75;100919.44;1780511;79;22088;-88
2021/03/04 11:03:30;;;;;;;37.48;21.82;;;;;;;7.36;97.21;100917.50;1780663;79;21815;-88
2021/03/04 11:06:00;;;;;;;33.45;19.40;;;;;;;7.43;97.10;100910.20;1780767;79;21122;-88
2021/03/04 11:08:35;;;;;;;35.13;21.10;;;;;;;7.49;97.52;100907.25;1780603;80;21194;-88
2021/03/04 11:11:05;;;;;;;36.25;20.40;;;;;;;7.54;95.97;100900.06;1786309;79;21109;-88
2021/03/04 11:13:37;;;;;;;37.85;23.92;;;;;;;7.55;93.79;100897.00;1790304;78;21327;-88
2021/03/04 11:16:06;;;;;;;82.33;33.30;;;;;;;7.52;96.99;100882.94;1790176;80;27103;-88
2021/03/04 11:18:35;;;;;;;55.28;30.90;;;;;;;7.55;97.94;100888.78;1790097;79;21134;-88
2021/03/04 11:21:04;;;;;;;32.93;22.40;;;;;;;7.58;97.85;100878.69;1790150;78;21684;-88
2021/03/04 11:23:32;;;;;;;35.38;21.55;;;;;;;7.61;98.81;100878.49;1790267;80;21138;-88
2021/03/04 11:26:01;;;;;;;26.68;18.12;;;;;;;7.64;99.14;100871.02;1790112;79;21368;-88
2021/03/04 11:28:29;;;;;;;34.25;23.77;;;;;;;7.70;100.00;100870.18;1776265;80;21569;-88
2021/03/04 11:31:01;;;;;;;43.78;26.07;;;;;;;7.79;100.00;100867.97;1769178;78;21126;-88
2021/03/04 11:33:30;;;;;;;44.58;24.25;;;;;;;7.83;100.00;100857.33;1789371;80;21583;-88
2021/03/04 11:36:00;;;;;;;46.42;30.82;;;;;;;7.87;100.00;100856.23;1781823;80;21138;-88
2021/03/04 11:38:32;;;;;;;52.58;41.53;;;;;;;7.92;100.00;100848.19;1758875;81;22250;-88
2021/03/04 11:41:00;;;;;;;56.63;47.55;;;;;;;7.94;99.84;100848.08;1786729;78;21075;-88
2021/03/04 11:43:30;;;;;;;49.42;38.53;;;;;;;7.96;100.00;100843.64;1790029;79;21134;-88
2021/03/04 11:45:58;;;;;;;32.10;24.18;;;;;;;7.99;100.00;100840.40;1790025;80;21166;-88
2021/03/04 11:48:29;;;;;;;35.17;23.12;;;;;;;8.02;100.00;100831.59;1790143;79;21066;-88
2021/03/04 11:50:58;;;;;;;37.67;27.48;;;;;;;8.05;100.00;100822.34;1789800;78;21363;-88